createdAt,value
2019-05-15T00:02:15.129Z,0.00
2019-05-15T00:05:15.119Z,0.00
2019-05-15T00:08:15.077Z,0.00
2019-05-15T00:11:15.054Z,0.00
2019-05-15T00:14:15.005Z,0.00
2019-05-15T00:17:14.991Z,0.00
2019-05-15T00:20:14.959Z,0.00
2019-05-15T00:23:14.904Z,0.00
2019-05-15T00:26:14.895Z,0.00
2019-05-15T00:29:16.301Z,0.00
2019-05-15T00:32:14.829Z,0.00
2019-05-15T00:35:14.795Z,0.00
2019-05-15T00:38:14.734Z,0.00
2019-05-15T00:41:14.736Z,0.00
2019-05-15T00:44:14.679Z,0.00
2019-05-15T00:47:14.663Z,0.00
2019-05-15T00:50:14.612Z,0.00
2019-05-15T00:53:14.608Z,0.00
2019-05-15T00:56:14.565Z,0.00
2019-05-15T00:59:24.161Z,0.00
2019-05-15T01:02:17.878Z,0.00
2019-05-15T01:05:14.452Z,0.00
2019-05-15T01:08:14.446Z,0.00
2019-05-15T01:11:14.403Z,0.00
2019-05-15T01:14:14.370Z,0.00
2019-05-15T01:17:14.335Z,0.00
2019-05-15T01:20:14.286Z,0.00
2019-05-15T01:23:14.299Z,0.00
2019-05-15T01:26:14.222Z,0.00
2019-05-15T01:29:14.213Z,0.00
2019-05-15T01:32:14.177Z,0.00
2019-05-15T01:35:14.129Z,0.00
2019-05-15T01:38:14.111Z,0.00
2019-05-15T01:41:14.059Z,0.00
2019-05-15T01:44:14.057Z,0.00
2019-05-15T01:47:14.003Z,0.00
2019-05-15T01:50:13.981Z,0.00
2019-05-15T01:53:13.966Z,0.00
2019-05-15T01:56:13.896Z,0.00
2019-05-15T01:59:13.891Z,0.00
2019-05-15T02:02:13.829Z,0.00
2019-05-15T02:05:13.817Z,0.00
2019-05-15T02:08:13.761Z,0.00
2019-05-15T02:11:13.748Z,0.00
2019-05-15T02:14:13.735Z,0.00
2019-05-15T02:17:13.666Z,0.00
2019-05-15T02:20:13.691Z,0.00
2019-05-15T02:23:13.605Z,0.00
2019-05-15T02:26:13.593Z,0.00
2019-05-15T02:29:16.602Z,0.00
2019-05-15T02:32:14.525Z,0.00
2019-05-15T02:35:13.471Z,0.00
2019-05-15T02:38:15.540Z,0.00
2019-05-15T02:41:13.423Z,0.00
2019-05-15T02:44:13.374Z,0.00
2019-05-15T02:47:13.374Z,0.00
2019-05-15T02:50:13.309Z,0.00
2019-05-15T02:53:13.311Z,0.00
2019-05-15T02:56:13.254Z,0.00
2019-05-15T02:59:13.233Z,0.00
2019-05-15T03:02:20.743Z,0.00
2019-05-15T03:05:13.144Z,0.00
2019-05-15T03:08:13.145Z,0.00
2019-05-15T03:11:13.081Z,0.00
2019-05-15T03:14:13.082Z,0.00
2019-05-15T03:17:13.024Z,0.00
2019-05-15T03:20:13.017Z,0.00
2019-05-15T03:23:12.954Z,0.00
2019-05-15T03:26:12.943Z,0.00
2019-05-15T03:29:12.885Z,5.62
2019-05-15T03:32:25.601Z,5.62
2019-05-15T03:35:15.425Z,5.62
2019-05-15T03:38:12.824Z,11.25
2019-05-15T03:41:12.787Z,11.25
2019-05-15T03:44:12.722Z,16.88
2019-05-15T03:47:12.729Z,16.88
2019-05-15T03:50:12.663Z,22.50
2019-05-15T03:53:12.647Z,28.12
2019-05-15T03:56:12.636Z,28.12
2019-05-15T03:59:12.563Z,33.75
2019-05-15T04:02:12.550Z,39.38
2019-05-15T04:05:12.564Z,39.38
2019-05-15T04:08:12.491Z,45.00
2019-05-15T04:11:12.437Z,50.62
2019-05-15T04:14:12.424Z,50.62
2019-05-15T04:17:12.367Z,56.25
2019-05-15T04:20:12.363Z,61.88
2019-05-15T04:23:12.317Z,67.50
2019-05-15T04:26:12.300Z,67.50
2019-05-15T04:29:12.237Z,73.12
2019-05-15T04:32:12.227Z,78.75
2019-05-15T04:35:12.205Z,84.38
2019-05-15T04:38:12.141Z,163.12
2019-05-15T04:41:12.146Z,298.12
2019-05-15T04:44:12.090Z,225.00
2019-05-15T04:47:12.072Z,202.50
2019-05-15T04:50:12.010Z,180.00
2019-05-15T04:53:11.991Z,174.38
2019-05-15T04:56:11.946Z,185.62
2019-05-15T04:59:11.938Z,191.25
2019-05-15T05:02:17.366Z,196.88
2019-05-15T05:05:12.845Z,202.50
2019-05-15T05:08:11.847Z,219.38
2019-05-15T05:11:11.784Z,219.38
2019-05-15T05:14:11.788Z,225.00
2019-05-15T05:17:11.739Z,236.25
2019-05-15T05:20:11.752Z,247.50
2019-05-15T05:23:11.654Z,247.50
2019-05-15T05:26:11.640Z,258.75
2019-05-15T05:29:11.594Z,270.00
2019-05-15T05:32:11.583Z,281.25
2019-05-15T05:35:11.546Z,292.50
2019-05-15T05:38:11.493Z,303.75
2019-05-15T05:41:11.480Z,320.62
2019-05-15T05:44:11.428Z,337.50
2019-05-15T05:47:11.411Z,354.38
2019-05-15T05:50:11.363Z,601.88
2019-05-15T05:53:11.347Z,866.25
2019-05-15T05:56:11.311Z,945.00
2019-05-15T05:59:11.257Z,973.12
2019-05-15T06:02:11.258Z,973.12
2019-05-15T06:05:11.219Z,1018.12
2019-05-15T06:08:11.154Z,1108.12
2019-05-15T06:11:11.150Z,1147.50
2019-05-15T06:14:11.088Z,1226.25
2019-05-15T06:17:11.080Z,1220.62
2019-05-15T06:20:11.033Z,1243.12
2019-05-15T06:23:11.020Z,1327.50
2019-05-15T06:26:10.973Z,1350.00
2019-05-15T06:29:10.946Z,1428.75
2019-05-15T06:32:10.914Z,1456.88
2019-05-15T06:35:10.863Z,1530.00
2019-05-15T06:38:10.847Z,1462.50
2019-05-15T06:41:10.822Z,1513.12
2019-05-15T06:44:10.760Z,1580.62
2019-05-15T06:47:10.740Z,1681.88
2019-05-15T06:50:10.698Z,1755.00
2019-05-15T06:53:11.021Z,1805.62
2019-05-15T06:56:10.635Z,1822.50
2019-05-15T06:59:10.615Z,1946.25
2019-05-15T07:02:10.575Z,1918.12
2019-05-15T07:05:10.548Z,1901.25
2019-05-15T07:08:10.522Z,2075.62
2019-05-15T07:11:10.471Z,2025.00
2019-05-15T07:14:10.444Z,2053.12
2019-05-15T07:17:10.414Z,2064.38
2019-05-15T07:20:10.388Z,2058.75
2019-05-15T07:23:10.336Z,2160.00
2019-05-15T07:26:10.317Z,2188.12
2019-05-15T07:29:10.310Z,2216.25
2019-05-15T07:32:10.243Z,2188.12
2019-05-15T07:35:10.223Z,2295.00
2019-05-15T07:38:10.171Z,2334.38
2019-05-15T07:41:10.634Z,2401.88
2019-05-15T07:44:10.105Z,2233.12
2019-05-15T07:47:10.099Z,2278.12
2019-05-15T07:50:10.052Z,2345.62
2019-05-15T07:53:10.019Z,2390.62
2019-05-15T07:56:11.571Z,2463.75
2019-05-15T07:59:09.949Z,2604.38
2019-05-15T08:02:09.942Z,2598.75
2019-05-15T08:05:09.900Z,2503.12
2019-05-15T08:08:09.852Z,2536.88
2019-05-15T08:11:20.424Z,2593.12
2019-05-15T08:14:10.787Z,2666.25
2019-05-15T08:17:09.773Z,2598.75
2019-05-15T08:20:09.726Z,2643.75
2019-05-15T08:23:09.705Z,2610.00
2019-05-15T08:26:09.739Z,2683.12
2019-05-15T08:29:09.645Z,2801.25
2019-05-15T08:32:09.626Z,2688.75
2019-05-15T08:35:09.569Z,2756.25
2019-05-15T08:38:09.545Z,2683.12
2019-05-15T08:41:11.554Z,2700.00
2019-05-15T08:44:09.493Z,2750.62
2019-05-15T08:47:09.450Z,2745.00
2019-05-15T08:50:09.433Z,2711.25
2019-05-15T08:53:09.422Z,2812.50
2019-05-15T08:56:09.353Z,2750.62
2019-05-15T08:59:09.341Z,2750.62
2019-05-15T09:03:41.590Z,2829.38
2019-05-15T09:06:41.678Z,2806.88
2019-05-15T09:09:41.531Z,2795.62
2019-05-15T09:12:41.481Z,2874.38
2019-05-15T09:15:41.461Z,2919.38
2019-05-15T09:18:41.439Z,2829.38
2019-05-15T09:21:41.391Z,2767.50
2019-05-15T09:24:41.375Z,2767.50
2019-05-15T09:27:41.335Z,2823.75
2019-05-15T09:30:41.321Z,2885.62
2019-05-15T09:33:41.270Z,2846.25
2019-05-15T09:36:45.083Z,2868.75
2019-05-15T09:39:41.249Z,2863.12
2019-05-15T09:42:41.177Z,2874.38
2019-05-15T09:45:41.188Z,2739.38
2019-05-15T09:48:41.120Z,2773.12
2019-05-15T09:51:41.106Z,2767.50
2019-05-15T09:54:41.055Z,2947.50
2019-05-15T09:57:41.051Z,2925.00
2019-05-15T10:00:41.021Z,2559.38
2019-05-15T10:03:44.368Z,2756.25
2019-05-15T10:06:40.960Z,2812.50
2019-05-15T10:09:40.910Z,2896.88
2019-05-15T10:12:40.933Z,2992.50
2019-05-15T10:15:40.882Z,2981.25
2019-05-15T10:18:40.813Z,2896.88
2019-05-15T10:21:40.827Z,2896.88
2019-05-15T10:24:40.791Z,2626.88
2019-05-15T10:27:40.754Z,2857.50
2019-05-15T10:30:40.704Z,2998.12
2019-05-15T10:33:40.695Z,2936.25
2019-05-15T10:36:40.665Z,2761.88
2019-05-15T10:39:40.723Z,2913.75
2019-05-15T10:42:40.592Z,2975.62
2019-05-15T10:45:42.724Z,2891.25
2019-05-15T10:48:40.536Z,2880.00
2019-05-15T10:51:40.488Z,3003.75
2019-05-15T10:54:40.480Z,2919.38
2019-05-15T10:57:43.664Z,2930.62
2019-05-15T11:00:40.446Z,2857.50
2019-05-15T11:03:40.367Z,2902.50
2019-05-15T11:06:40.357Z,2857.50
2019-05-15T11:09:40.582Z,2823.75
2019-05-15T11:12:40.311Z,2733.75
2019-05-15T11:15:42.521Z,2739.38
2019-05-15T11:18:40.445Z,2143.12
2019-05-15T11:21:43.346Z,2728.12
2019-05-15T11:24:40.267Z,2790.00
2019-05-15T11:27:40.139Z,2778.75
2019-05-15T11:30:40.135Z,2880.00
2019-05-15T11:33:40.083Z,2992.50
2019-05-15T11:36:40.078Z,787.50
2019-05-15T11:39:45.849Z,742.50
2019-05-15T11:42:41.011Z,2778.75
2019-05-15T11:45:39.957Z,720.00
2019-05-15T11:48:39.947Z,1957.50
2019-05-15T11:51:39.903Z,669.38
2019-05-15T11:54:39.890Z,2188.12
2019-05-15T11:57:46.861Z,1423.12
2019-05-15T12:00:40.806Z,2750.62
2019-05-15T12:03:39.802Z,2469.38
2019-05-15T12:06:39.776Z,2598.75
2019-05-15T12:09:39.735Z,680.62
2019-05-15T12:12:39.689Z,2542.50
2019-05-15T12:15:39.690Z,2441.25
2019-05-15T12:18:39.622Z,2283.75
2019-05-15T12:21:39.832Z,2407.50
2019-05-15T12:24:40.571Z,2233.12
2019-05-15T12:27:40.454Z,1850.62
2019-05-15T12:30:40.457Z,1372.50
2019-05-15T12:33:39.495Z,731.25
2019-05-15T12:39:26.002Z,596.25
2019-05-15T12:39:41.131Z,1237.50
2019-05-15T13:00:40.253Z,495.00
2019-05-15T13:03:39.167Z,450.00
2019-05-15T13:06:48.099Z,444.38
2019-05-15T13:09:40.108Z,568.12
2019-05-15T13:12:54.307Z,624.38
2019-05-15T13:15:41.288Z,534.38
2019-05-15T13:18:39.013Z,416.25
2019-05-15T13:21:39.022Z,410.62
2019-05-15T13:24:38.953Z,421.88
2019-05-15T13:27:38.950Z,444.38
2019-05-15T13:30:41.508Z,579.38
2019-05-15T13:33:38.895Z,573.75
2019-05-15T13:36:39.358Z,540.00
2019-05-15T13:39:39.219Z,523.12
2019-05-15T13:42:39.153Z,506.25
2019-05-15T13:45:39.002Z,489.38
2019-05-15T13:48:38.819Z,489.38
2019-05-15T13:51:38.696Z,860.62
2019-05-15T13:54:38.665Z,849.38
2019-05-15T13:57:38.613Z,1186.88
2019-05-15T14:00:39.363Z,1310.62
2019-05-15T14:03:39.009Z,646.88
2019-05-15T14:06:38.527Z,506.25
2019-05-15T14:09:44.337Z,489.38
2019-05-15T14:12:39.462Z,388.12
2019-05-15T14:15:38.535Z,1451.25
2019-05-15T14:18:39.072Z,1288.12
2019-05-15T14:21:38.385Z,455.62
2019-05-15T14:24:38.388Z,781.88
2019-05-15T14:27:39.664Z,416.25
2019-05-15T14:30:38.273Z,354.38
2019-05-15T14:33:38.254Z,309.38
2019-05-15T14:36:38.205Z,303.75
2019-05-15T14:39:38.206Z,315.00
2019-05-15T14:42:39.289Z,326.25
2019-05-15T14:45:38.846Z,506.25
2019-05-15T14:48:38.624Z,247.50
2019-05-15T14:51:39.146Z,225.00
2019-05-15T14:54:38.513Z,202.50
2019-05-15T14:57:39.136Z,213.75
2019-05-15T15:00:41.415Z,579.38
2019-05-15T15:03:44.979Z,590.62
2019-05-15T15:06:37.887Z,641.25
2019-05-15T15:09:37.876Z,663.75
2019-05-15T15:12:39.822Z,641.25
2019-05-15T15:15:38.114Z,292.50
2019-05-15T15:18:38.600Z,281.25
2019-05-15T15:21:38.488Z,286.88
2019-05-15T15:24:38.963Z,286.88
2019-05-15T15:27:38.752Z,292.50
2019-05-15T15:30:38.452Z,286.88
2019-05-15T15:33:39.183Z,275.62
2019-05-15T15:36:38.032Z,568.12
2019-05-15T15:39:38.634Z,585.00
2019-05-15T15:42:39.416Z,596.25
2019-05-15T15:45:39.131Z,596.25
2019-05-15T15:48:39.090Z,590.62
2019-05-15T15:51:38.029Z,292.50
2019-05-15T15:54:39.493Z,270.00
2019-05-15T15:57:39.683Z,247.50
2019-05-15T16:00:38.383Z,236.25
2019-05-15T16:03:38.010Z,230.62
2019-05-15T16:06:38.719Z,247.50
2019-05-15T16:09:38.795Z,506.25
2019-05-15T16:12:38.825Z,511.88
2019-05-15T16:15:38.578Z,478.12
2019-05-15T16:18:38.392Z,219.38
2019-05-15T16:21:39.321Z,365.62
2019-05-15T16:24:38.600Z,163.12
2019-05-15T16:27:38.212Z,151.88
2019-05-15T16:30:50.760Z,146.25
2019-05-15T16:33:39.030Z,163.12
2019-05-15T16:36:38.477Z,174.38
2019-05-15T16:39:38.195Z,202.50
2019-05-15T16:42:38.531Z,213.75
2019-05-15T16:45:38.869Z,208.12
2019-05-15T16:48:38.957Z,196.88
2019-05-15T16:51:38.248Z,253.12
2019-05-15T16:54:38.365Z,219.38
2019-05-15T16:57:38.651Z,180.00
2019-05-15T17:00:38.427Z,118.12
2019-05-15T17:03:43.686Z,118.12
2019-05-15T17:06:38.679Z,129.38
2019-05-15T17:09:38.572Z,135.00
2019-05-15T17:12:38.809Z,135.00
2019-05-15T17:15:38.426Z,129.38
2019-05-15T17:18:43.500Z,118.12
2019-05-15T17:21:36.461Z,123.75
2019-05-15T17:24:36.531Z,135.00
2019-05-15T17:27:36.394Z,140.62
2019-05-15T17:30:38.305Z,163.12
2019-05-15T17:33:38.107Z,163.12
2019-05-15T17:36:38.248Z,157.50
2019-05-15T17:39:41.323Z,146.25
2019-05-15T17:42:39.019Z,135.00
2019-05-15T17:45:38.829Z,112.50
2019-05-15T17:48:38.645Z,90.00
2019-05-15T17:51:38.213Z,73.12
2019-05-15T17:54:37.959Z,56.25
2019-05-15T17:57:38.542Z,45.00
2019-05-15T18:00:36.022Z,39.38
2019-05-15T18:03:35.984Z,33.75
2019-05-15T18:06:35.983Z,28.12
2019-05-15T18:09:48.455Z,28.12
2019-05-15T18:12:38.830Z,33.75
2019-05-15T18:15:38.380Z,33.75
2019-05-15T18:18:35.824Z,33.75
2019-05-15T18:21:38.138Z,33.75
2019-05-15T18:24:38.198Z,28.12
2019-05-15T18:27:35.739Z,28.12
2019-05-15T18:30:35.700Z,28.12
2019-05-15T18:33:35.663Z,22.50
2019-05-15T18:36:35.638Z,22.50
2019-05-15T18:39:35.587Z,22.50
2019-05-15T18:42:35.571Z,22.50
2019-05-15T18:45:35.532Z,22.50
2019-05-15T18:48:35.503Z,22.50
2019-05-15T18:51:35.462Z,16.88
2019-05-15T18:54:35.437Z,16.88
2019-05-15T18:57:35.395Z,11.25
2019-05-15T19:00:36.186Z,5.62
2019-05-15T19:03:35.343Z,5.62
2019-05-15T19:06:35.311Z,5.62
2019-05-15T19:09:35.277Z,5.62
2019-05-15T19:12:37.702Z,5.62
2019-05-15T19:15:35.204Z,5.62
2019-05-15T19:18:35.179Z,5.62
2019-05-15T19:21:35.156Z,0.00
2019-05-15T19:24:35.141Z,0.00
2019-05-15T19:27:35.075Z,0.00
2019-05-15T19:30:35.052Z,0.00
2019-05-15T19:33:38.131Z,0.00
2019-05-15T19:36:38.112Z,0.00
2019-05-15T19:39:34.950Z,0.00
2019-05-15T19:42:34.943Z,0.00
2019-05-15T19:45:34.882Z,0.00
2019-05-15T19:48:34.864Z,0.00
2019-05-15T19:51:34.844Z,0.00
2019-05-15T19:54:34.785Z,0.00
2019-05-15T19:57:34.761Z,0.00
2019-05-15T20:00:34.735Z,0.00
2019-05-15T20:03:47.295Z,0.00
2019-05-15T20:06:35.672Z,0.00
2019-05-15T20:09:34.617Z,0.00
2019-05-15T20:12:34.605Z,0.00
2019-05-15T20:15:34.567Z,0.00
2019-05-15T20:18:34.531Z,0.00
2019-05-15T20:21:34.497Z,0.00
2019-05-15T20:24:34.487Z,0.00
2019-05-15T20:27:34.436Z,0.00
2019-05-15T20:30:34.397Z,0.00
2019-05-15T20:33:34.368Z,0.00
2019-05-15T20:36:34.326Z,0.00
2019-05-15T20:39:34.304Z,0.00
2019-05-15T20:42:34.271Z,0.00
2019-05-15T20:45:34.235Z,0.00
2019-05-15T20:48:34.237Z,0.00
2019-05-15T20:51:35.866Z,0.00
2019-05-15T20:54:34.145Z,0.00
2019-05-15T20:57:34.106Z,0.00
2019-05-15T21:00:34.076Z,0.00
2019-05-15T21:03:34.050Z,0.00
2019-05-15T21:06:34.001Z,0.00
2019-05-15T21:09:33.981Z,0.00
2019-05-15T21:12:33.986Z,0.00
2019-05-15T21:15:33.910Z,0.00
2019-05-15T21:18:33.879Z,0.00
2019-05-15T21:21:33.848Z,0.00
2019-05-15T21:24:33.815Z,0.00
2019-05-15T21:27:33.901Z,0.00
2019-05-15T21:30:33.777Z,0.00
2019-05-15T21:33:33.709Z,0.00
2019-05-15T21:36:33.735Z,0.00
2019-05-15T21:39:33.649Z,0.00
2019-05-15T21:42:33.641Z,0.00
2019-05-15T21:45:33.576Z,0.00
2019-05-15T21:48:33.554Z,0.00
2019-05-15T21:51:33.543Z,0.00
2019-05-15T21:54:33.480Z,0.00
2019-05-15T21:57:36.676Z,0.00
2019-05-15T22:00:34.433Z,0.00
2019-05-15T22:03:33.386Z,0.00
2019-05-15T22:06:33.361Z,0.00
2019-05-15T22:09:33.344Z,0.00
2019-05-15T22:12:33.299Z,0.00
2019-05-15T22:15:33.244Z,0.00
2019-05-15T22:18:33.232Z,0.00
2019-05-15T22:21:33.178Z,0.00
2019-05-15T22:24:33.178Z,0.00
2019-05-15T22:27:33.122Z,0.00
2019-05-15T22:30:33.111Z,0.00
2019-05-15T22:33:33.071Z,0.00
2019-05-15T22:36:33.018Z,0.00
2019-05-15T22:39:33.011Z,0.00
2019-05-15T22:42:32.969Z,0.00
2019-05-15T22:45:32.923Z,0.00
2019-05-15T22:48:32.903Z,0.00
2019-05-15T22:51:32.877Z,0.00
2019-05-15T22:54:32.814Z,0.00
2019-05-15T22:57:32.804Z,0.00
2019-05-15T23:00:32.772Z,0.00
2019-05-15T23:03:32.712Z,0.00
2019-05-15T23:06:32.701Z,0.00
2019-05-15T23:09:32.678Z,0.00
2019-05-15T23:12:32.614Z,0.00
2019-05-15T23:15:32.603Z,0.00
2019-05-15T23:18:32.550Z,0.00
2019-05-15T23:21:32.554Z,0.00
2019-05-15T23:24:32.483Z,0.00
2019-05-15T23:27:32.475Z,0.00
2019-05-15T23:30:32.447Z,0.00
2019-05-15T23:33:32.414Z,0.00
2019-05-15T23:36:32.353Z,0.00
2019-05-15T23:39:32.349Z,0.00
2019-05-15T23:42:32.315Z,0.00
2019-05-15T23:45:32.289Z,0.00
2019-05-15T23:48:32.215Z,0.00
2019-05-15T23:51:32.217Z,0.00
2019-05-15T23:54:32.163Z,0.00
2019-05-15T23:57:32.131Z,0.00
